createdAt,value
2017-03-25T00:00:48.917Z,47.18
2017-03-25T00:01:54.581Z,47.35
2017-03-25T00:03:00.057Z,46.85
2017-03-25T00:04:05.041Z,44.32
2017-03-25T00:05:11.472Z,45.52
2017-03-25T00:06:16.277Z,48.75
2017-03-25T00:07:22.024Z,47.18
2017-03-25T00:08:27.440Z,48.28
2017-03-25T00:09:33.852Z,46.32
2017-03-25T00:10:40.637Z,46.90
2017-03-25T00:11:46.245Z,46.57
2017-03-25T00:12:52.084Z,46.80
2017-03-25T00:13:57.875Z,47.13
2017-03-25T00:15:02.843Z,45.38
2017-03-25T00:16:08.417Z,45.67
2017-03-25T00:17:14.824Z,47.73
2017-03-25T00:18:19.657Z,46.42
2017-03-25T00:19:26.011Z,44.58
2017-03-25T00:20:31.528Z,45.90
2017-03-25T00:21:37.259Z,44.68
2017-03-25T00:22:42.122Z,47.52
2017-03-25T00:23:48.422Z,44.77
2017-03-25T00:24:53.409Z,48.10
2017-03-25T00:25:59.833Z,47.00
2017-03-25T00:27:04.821Z,46.62
2017-03-25T00:28:10.276Z,43.50
2017-03-25T00:29:16.732Z,43.23
2017-03-25T00:30:22.444Z,44.75
2017-03-25T00:31:27.924Z,43.40
2017-03-25T00:32:33.588Z,45.00
2017-03-25T00:33:38.589Z,44.23
2017-03-25T00:34:44.825Z,43.25
2017-03-25T00:35:49.785Z,46.72
2017-03-25T00:36:56.028Z,45.68
2017-03-25T00:38:01.698Z,45.95
2017-03-25T00:39:06.783Z,44.25
2017-03-25T00:40:12.388Z,41.80
2017-03-25T00:41:18.010Z,43.18
2017-03-25T00:42:22.849Z,41.93
2017-03-25T00:43:28.584Z,43.45
2017-03-25T00:44:34.072Z,42.60
2017-03-25T00:45:40.420Z,42.55
2017-03-25T00:46:45.336Z,43.00
2017-03-25T00:47:50.045Z,44.43
2017-03-25T00:48:55.716Z,41.35
2017-03-25T00:50:01.433Z,44.70
2017-03-25T00:51:07.776Z,42.83
2017-03-25T00:52:13.545Z,43.28
2017-03-25T00:53:19.200Z,43.58
2017-03-25T00:54:24.942Z,41.38
2017-03-25T00:55:30.896Z,40.98
2017-03-25T00:56:35.804Z,42.77
2017-03-25T00:57:41.464Z,41.08
2017-03-25T00:58:46.139Z,39.92
2017-03-25T00:59:51.720Z,41.93
2017-03-25T01:00:57.381Z,41.42
2017-03-25T01:02:03.063Z,42.62
2017-03-25T01:03:09.432Z,41.43
2017-03-25T01:04:14.364Z,38.53
2017-03-25T01:05:19.244Z,43.35
2017-03-25T01:06:24.821Z,42.83
2017-03-25T01:07:36.261Z,40.47
2017-03-25T01:08:41.197Z,42.68
2017-03-25T01:09:46.752Z,40.70
2017-03-25T01:10:52.469Z,40.82
2017-03-25T01:11:57.940Z,41.02
2017-03-25T01:13:03.444Z,42.98
2017-03-25T01:14:08.324Z,43.95
2017-03-25T01:15:13.931Z,43.85
2017-03-25T01:16:19.753Z,43.40
2017-03-25T01:17:25.129Z,40.92
2017-03-25T01:18:30.716Z,41.07
2017-03-25T01:19:36.235Z,42.10
2017-03-25T01:20:41.241Z,41.02
2017-03-25T01:21:46.936Z,41.60
2017-03-25T01:22:52.496Z,41.15
2017-03-25T01:23:57.201Z,40.65
2017-03-25T01:25:03.720Z,37.85
2017-03-25T01:26:09.470Z,38.12
2017-03-25T01:27:14.426Z,36.72
2017-03-25T01:28:20.016Z,36.78
2017-03-25T01:29:25.756Z,38.92
2017-03-25T01:30:30.469Z,37.68
2017-03-25T01:31:36.864Z,37.02
2017-03-25T01:32:42.465Z,38.70
2017-03-25T01:33:47.300Z,38.98
2017-03-25T01:34:52.813Z,37.80
2017-03-25T01:35:58.325Z,37.15
2017-03-25T01:37:03.195Z,39.85
2017-03-25T01:38:10.620Z,38.87
2017-03-25T01:39:15.536Z,39.40
2017-03-25T01:40:21.008Z,38.78
2017-03-25T01:41:25.748Z,36.73
2017-03-25T01:42:31.244Z,37.02
2017-03-25T01:43:37.028Z,37.53
2017-03-25T01:44:41.876Z,38.25
2017-03-25T01:45:48.216Z,40.57
2017-03-25T01:46:53.097Z,42.87
2017-03-25T01:47:57.992Z,37.93
2017-03-25T01:49:04.213Z,36.87
2017-03-25T01:50:10.060Z,39.10
2017-03-25T01:51:15.571Z,39.28
2017-03-25T01:52:21.137Z,40.30
2017-03-25T01:53:26.109Z,39.12
2017-03-25T01:54:32.544Z,38.30
2017-03-25T01:55:38.256Z,38.47
2017-03-25T01:56:42.909Z,41.32
2017-03-25T01:57:47.572Z,35.58
2017-03-25T01:58:54.016Z,39.40
2017-03-25T01:59:59.048Z,37.23
2017-03-25T02:01:05.325Z,39.18
2017-03-25T02:02:10.220Z,41.40
2017-03-25T02:03:16.559Z,39.35
2017-03-25T02:04:22.356Z,36.60
2017-03-25T02:05:27.876Z,40.83
2017-03-25T02:06:33.108Z,40.50
2017-03-25T02:07:39.283Z,40.35
2017-03-25T02:08:45.013Z,41.68
2017-03-25T02:09:49.904Z,39.67
2017-03-25T02:10:55.559Z,39.65
2017-03-25T02:12:01.873Z,38.98
2017-03-25T02:13:06.846Z,38.85
2017-03-25T02:14:12.504Z,39.63
2017-03-25T02:15:18.757Z,39.18
2017-03-25T02:16:24.531Z,41.13
2017-03-25T02:17:29.312Z,36.93
2017-03-25T02:18:34.960Z,39.92
2017-03-25T02:19:41.352Z,38.02
2017-03-25T02:20:46.340Z,37.07
2017-03-25T02:21:51.872Z,36.80
2017-03-25T02:22:56.663Z,35.70
2017-03-25T02:24:02.360Z,37.27
2017-03-25T02:25:08.096Z,36.85
2017-03-25T02:26:13.765Z,36.23
2017-03-25T02:27:19.452Z,37.63
2017-03-25T02:28:25.116Z,38.17
2017-03-25T02:29:30.697Z,37.02
2017-03-25T02:30:36.100Z,35.95
2017-03-25T02:31:40.885Z,39.63
2017-03-25T02:32:46.513Z,35.82
2017-03-25T02:33:52.109Z,35.43
2017-03-25T02:34:57.744Z,37.40
2017-03-25T02:36:02.654Z,34.38
2017-03-25T02:37:08.165Z,35.28
2017-03-25T02:38:14.837Z,38.05
2017-03-25T02:39:20.413Z,38.67
2017-03-25T02:40:25.973Z,38.43
2017-03-25T02:41:30.909Z,39.57
2017-03-25T02:42:36.556Z,40.62
2017-03-25T02:43:42.281Z,38.23
2017-03-25T02:44:47.680Z,37.47
2017-03-25T02:45:53.305Z,37.72
2017-03-25T02:46:58.440Z,36.90
2017-03-25T02:48:03.223Z,38.10
2017-03-25T02:49:08.848Z,39.25
2017-03-25T02:50:14.516Z,35.93
2017-03-25T02:51:20.825Z,36.35
2017-03-25T02:52:26.743Z,39.23
2017-03-25T02:53:31.924Z,37.60
2017-03-25T02:54:38.416Z,37.42
2017-03-25T02:55:43.119Z,37.72
2017-03-25T02:56:48.732Z,37.10
2017-03-25T02:57:55.053Z,37.80
2017-03-25T02:58:59.841Z,37.25
2017-03-25T03:00:05.415Z,35.78
2017-03-25T03:01:11.120Z,36.88
2017-03-25T03:02:16.852Z,35.85
2017-03-25T03:03:22.001Z,36.93
2017-03-25T03:04:27.657Z,36.15
2017-03-25T03:05:32.428Z,37.30
2017-03-25T03:06:38.824Z,35.33
2017-03-25T03:07:44.461Z,37.62
2017-03-25T03:08:49.342Z,35.42
2017-03-25T03:09:54.881Z,36.22
2017-03-25T03:11:02.348Z,38.83
2017-03-25T03:12:07.205Z,37.70
2017-03-25T03:13:13.489Z,36.63
2017-03-25T03:14:19.361Z,38.42
2017-03-25T03:15:24.210Z,38.53
2017-03-25T03:16:28.936Z,36.87
2017-03-25T03:17:35.331Z,35.28
2017-03-25T03:18:40.221Z,39.03
2017-03-25T03:19:46.647Z,35.27
2017-03-25T03:20:52.176Z,32.97
2017-03-25T03:21:57.844Z,33.68
2017-03-25T03:23:02.849Z,32.85
2017-03-25T03:24:09.166Z,32.38
2017-03-25T03:25:14.717Z,32.63
2017-03-25T03:26:19.481Z,32.20
2017-03-25T03:27:25.965Z,31.47
2017-03-25T03:28:30.725Z,33.30
2017-03-25T03:29:37.012Z,32.38
2017-03-25T03:30:42.896Z,31.50
2017-03-25T03:31:48.448Z,33.28
2017-03-25T03:32:53.411Z,32.40
2017-03-25T03:33:59.774Z,32.68
2017-03-25T03:35:04.901Z,31.60
2017-03-25T03:36:10.457Z,30.28
2017-03-25T03:37:16.188Z,31.23
2017-03-25T03:38:23.531Z,32.67
2017-03-25T03:39:28.397Z,31.77
2017-03-25T03:40:34.789Z,31.32
2017-03-25T03:41:40.462Z,31.92
2017-03-25T03:42:46.183Z,31.48
2017-03-25T03:43:51.182Z,31.28
2017-03-25T03:44:56.664Z,31.13
2017-03-25T03:46:02.330Z,31.00
2017-03-25T03:47:08.709Z,33.03
2017-03-25T03:48:14.469Z,33.52
2017-03-25T03:49:19.386Z,35.03
2017-03-25T03:50:25.756Z,32.07
2017-03-25T03:51:31.314Z,32.93
2017-03-25T03:52:36.197Z,33.50
2017-03-25T03:53:41.770Z,34.28
2017-03-25T03:54:47.311Z,33.87
2017-03-25T03:55:52.900Z,32.40
2017-03-25T03:56:57.936Z,35.07
2017-03-25T03:58:03.485Z,31.08
2017-03-25T03:59:09.260Z,33.58
2017-03-25T04:00:21.508Z,34.50
2017-03-25T04:01:26.884Z,32.37
2017-03-25T04:02:32.584Z,34.87
2017-03-25T04:03:39.249Z,34.28
2017-03-25T04:04:45.688Z,34.00
2017-03-25T04:05:51.325Z,33.90
2017-03-25T04:06:57.141Z,33.22
2017-03-25T04:08:02.696Z,32.63
2017-03-25T04:09:08.388Z,33.13
2017-03-25T04:10:13.224Z,32.38
2017-03-25T04:11:18.921Z,33.13
2017-03-25T04:12:25.279Z,32.07
2017-03-25T04:13:29.990Z,32.15
2017-03-25T04:14:36.429Z,34.15
2017-03-25T04:15:42.149Z,33.17
2017-03-25T04:16:47.984Z,33.07
2017-03-25T04:17:53.570Z,32.05
2017-03-25T04:18:58.389Z,33.58
2017-03-25T04:20:04.140Z,33.00
2017-03-25T04:21:10.466Z,31.97
2017-03-25T04:22:15.308Z,32.47
2017-03-25T04:23:20.816Z,31.50
2017-03-25T04:24:26.253Z,30.12
2017-03-25T04:25:31.250Z,32.20
2017-03-25T04:26:36.820Z,29.07
2017-03-25T04:27:42.526Z,31.75
2017-03-25T04:28:48.738Z,30.88
2017-03-25T04:29:54.456Z,31.05
2017-03-25T04:31:00.070Z,30.12
2017-03-25T04:32:05.058Z,29.25
2017-03-25T04:33:11.461Z,27.72
2017-03-25T04:34:16.280Z,27.87
2017-03-25T04:35:22.677Z,28.80
2017-03-25T04:36:27.704Z,28.17
2017-03-25T04:37:34.136Z,28.18
2017-03-25T04:38:41.712Z,28.40
2017-03-25T04:39:46.613Z,28.18
2017-03-25T04:40:52.080Z,26.33
2017-03-25T04:41:57.669Z,28.98
2017-03-25T04:43:03.355Z,27.25
2017-03-25T04:44:09.203Z,28.12
2017-03-25T04:45:14.746Z,28.85
2017-03-25T04:46:19.621Z,28.53
2017-03-25T04:47:26.013Z,28.13
2017-03-25T04:48:31.591Z,32.72
2017-03-25T04:49:36.397Z,29.68
2017-03-25T04:50:41.157Z,26.18
2017-03-25T04:51:47.293Z,26.88
2017-03-25T04:52:52.231Z,27.47
2017-03-25T04:53:57.735Z,27.63
2017-03-25T04:55:03.429Z,28.28
2017-03-25T04:56:08.229Z,28.08
2017-03-25T04:57:13.965Z,27.93
2017-03-25T04:58:18.637Z,26.02
2017-03-25T04:59:24.352Z,26.58
2017-03-25T05:00:30.028Z,24.73
2017-03-25T05:01:34.745Z,26.68
2017-03-25T05:02:41.137Z,28.47
2017-03-25T05:03:46.751Z,26.42
2017-03-25T05:04:52.445Z,25.58
2017-03-25T05:05:57.269Z,26.93
2017-03-25T05:07:02.707Z,28.55
2017-03-25T05:08:07.412Z,25.97
2017-03-25T05:09:13.781Z,26.68
2017-03-25T05:10:18.700Z,26.65
2017-03-25T05:11:24.355Z,28.20
2017-03-25T05:12:30.690Z,28.47
2017-03-25T05:13:36.225Z,27.02
2017-03-25T05:14:41.809Z,27.07
2017-03-25T05:15:46.616Z,26.02
2017-03-25T05:16:52.294Z,25.88
2017-03-25T05:17:58.577Z,25.40
2017-03-25T05:19:03.390Z,25.90
2017-03-25T05:20:09.054Z,26.75
2017-03-25T05:21:14.700Z,27.05
2017-03-25T05:22:21.109Z,27.13
2017-03-25T05:23:25.853Z,26.28
2017-03-25T05:24:30.560Z,25.53
2017-03-25T05:25:36.896Z,27.40
2017-03-25T05:26:41.600Z,26.68
2017-03-25T05:27:46.474Z,30.75
2017-03-25T05:28:52.055Z,25.80
2017-03-25T05:29:58.494Z,26.70
2017-03-25T05:31:03.533Z,28.42
2017-03-25T05:32:09.232Z,26.27
2017-03-25T05:33:14.987Z,27.33
2017-03-25T05:34:21.317Z,24.85
2017-03-25T05:35:27.040Z,27.72
2017-03-25T05:36:32.008Z,28.97
2017-03-25T05:37:37.536Z,28.28
2017-03-25T05:38:44.907Z,29.13
2017-03-25T05:39:49.713Z,25.10
2017-03-25T05:40:55.321Z,28.22
2017-03-25T05:42:01.641Z,26.48
2017-03-25T05:43:07.328Z,28.70
2017-03-25T05:44:12.418Z,28.65
2017-03-25T05:45:17.920Z,28.60
2017-03-25T05:46:23.305Z,27.40
2017-03-25T05:47:28.164Z,26.05
2017-03-25T05:48:33.582Z,27.43
2017-03-25T05:49:40.028Z,26.68
2017-03-25T05:50:45.611Z,27.25
2017-03-25T05:51:51.361Z,25.52
2017-03-25T05:52:57.581Z,25.43
2017-03-25T05:54:03.637Z,26.17
2017-03-25T05:55:08.633Z,25.12
2017-03-25T05:56:14.209Z,25.82
2017-03-25T05:57:20.484Z,24.90
2017-03-25T05:58:25.388Z,23.38
2017-03-25T05:59:31.760Z,23.73
2017-03-25T06:00:36.828Z,24.67
2017-03-25T06:01:42.424Z,24.42
2017-03-25T06:02:48.009Z,25.75
2017-03-25T06:03:53.573Z,23.42
2017-03-25T06:05:00.025Z,23.25
2017-03-25T06:06:05.591Z,23.27
2017-03-25T06:07:10.445Z,21.57
2017-03-25T06:08:16.017Z,22.58
2017-03-25T06:09:22.382Z,22.43
2017-03-25T06:10:27.382Z,21.00
2017-03-25T06:11:33.852Z,21.33
2017-03-25T06:12:38.617Z,21.62
2017-03-25T06:13:44.314Z,20.93
2017-03-25T06:14:49.880Z,19.33
2017-03-25T06:15:56.218Z,20.68
2017-03-25T06:17:01.944Z,21.45
2017-03-25T06:18:06.748Z,21.55
2017-03-25T06:19:12.321Z,20.93
2017-03-25T06:20:18.844Z,19.65
2017-03-25T06:21:24.481Z,20.42
2017-03-25T06:22:29.405Z,22.23
2017-03-25T06:23:35.035Z,20.78
2017-03-25T06:24:40.657Z,22.47
2017-03-25T06:25:46.448Z,19.30
2017-03-25T06:26:51.245Z,21.63
2017-03-25T06:27:57.524Z,21.07
2017-03-25T06:29:03.257Z,20.80
2017-03-25T06:30:07.997Z,20.80
2017-03-25T06:31:12.765Z,20.12
2017-03-25T06:32:18.332Z,19.60
2017-03-25T06:33:23.865Z,20.28
2017-03-25T06:34:29.494Z,19.78
2017-03-25T06:35:35.861Z,20.27
2017-03-25T06:36:41.493Z,19.88
2017-03-25T06:37:47.148Z,20.33
2017-03-25T06:38:53.645Z,20.82
2017-03-25T06:39:58.377Z,20.08
2017-03-25T06:41:03.924Z,19.17
2017-03-25T06:42:08.649Z,20.15
2017-03-25T06:43:13.359Z,19.53
2017-03-25T06:44:19.917Z,20.97
2017-03-25T06:45:25.476Z,19.55
2017-03-25T06:46:31.077Z,20.22
2017-03-25T06:47:36.621Z,21.40
2017-03-25T06:48:41.581Z,20.12
2017-03-25T06:49:48.054Z,20.82
2017-03-25T06:50:52.905Z,21.90
2017-03-25T06:51:58.481Z,20.87
2017-03-25T06:53:04.999Z,19.65
2017-03-25T06:54:10.492Z,18.60
2017-03-25T06:55:16.165Z,20.37
2017-03-25T06:56:21.876Z,21.23
2017-03-25T06:57:26.613Z,20.43
2017-03-25T06:58:31.325Z,21.28
2017-03-25T06:59:36.065Z,22.13
2017-03-25T07:00:40.965Z,19.83
2017-03-25T07:01:47.361Z,19.53
2017-03-25T07:02:52.944Z,19.98
2017-03-25T07:03:58.665Z,22.93
2017-03-25T07:05:04.433Z,21.13
2017-03-25T07:06:09.398Z,20.58
2017-03-25T07:07:14.945Z,19.12
2017-03-25T07:08:19.713Z,20.02
2017-03-25T07:09:25.969Z,20.73
2017-03-25T07:10:30.896Z,20.25
2017-03-25T07:11:36.472Z,20.78
2017-03-25T07:12:41.306Z,19.18
2017-03-25T07:13:47.672Z,20.90
2017-03-25T07:14:52.613Z,19.13
2017-03-25T07:15:58.225Z,19.85
2017-03-25T07:17:03.972Z,20.73
2017-03-25T07:18:10.230Z,20.22
2017-03-25T07:19:15.161Z,20.90
2017-03-25T07:20:20.572Z,18.12
2017-03-25T07:21:26.069Z,18.17
2017-03-25T07:22:31.693Z,18.90
2017-03-25T07:23:36.494Z,18.68
2017-03-25T07:24:42.874Z,20.55
2017-03-25T07:25:47.892Z,19.02
2017-03-25T07:26:54.209Z,19.43
2017-03-25T07:27:59.132Z,19.42
2017-03-25T07:29:05.544Z,18.13
2017-03-25T07:30:11.305Z,18.08
2017-03-25T07:31:17.007Z,19.40
2017-03-25T07:32:22.421Z,19.03
2017-03-25T07:33:28.125Z,18.98
2017-03-25T07:34:33.671Z,18.33
2017-03-25T07:35:40.001Z,19.30
2017-03-25T07:36:45.654Z,18.67
2017-03-25T07:37:51.249Z,17.83
2017-03-25T07:38:56.105Z,17.62
2017-03-25T07:40:02.525Z,19.77
2017-03-25T07:41:08.134Z,18.15
2017-03-25T07:42:13.756Z,15.95
2017-03-25T07:43:19.433Z,17.73
2017-03-25T07:44:25.143Z,15.88
2017-03-25T07:45:31.584Z,17.90
2017-03-25T07:46:37.331Z,16.42
2017-03-25T07:47:42.792Z,16.90
2017-03-25T07:48:48.329Z,16.20
2017-03-25T07:49:53.978Z,17.40
2017-03-25T07:50:59.762Z,16.87
2017-03-25T07:52:05.325Z,14.05
2017-03-25T07:53:10.837Z,16.13
2017-03-25T07:54:16.332Z,17.10
2017-03-25T07:55:21.492Z,15.15
2017-03-25T07:56:28.065Z,16.55
2017-03-25T07:57:33.635Z,15.33
2017-03-25T07:58:38.430Z,15.63
2017-03-25T07:59:44.821Z,16.35
2017-03-25T08:00:50.552Z,16.75
2017-03-25T08:01:56.248Z,14.60
2017-03-25T08:03:01.250Z,15.40
2017-03-25T08:04:07.704Z,14.13
2017-03-25T08:05:12.561Z,15.37
2017-03-25T08:06:19.047Z,15.82
2017-03-25T08:07:25.417Z,17.38
2017-03-25T08:08:30.204Z,16.52
2017-03-25T08:09:36.632Z,15.60
2017-03-25T08:10:41.597Z,15.40
2017-03-25T08:11:49.171Z,16.07
2017-03-25T08:12:54.712Z,15.25
2017-03-25T08:14:00.359Z,15.68
2017-03-25T08:15:06.137Z,14.93
2017-03-25T08:16:10.949Z,15.75
2017-03-25T08:17:17.296Z,14.22
2017-03-25T08:18:23.297Z,14.70
2017-03-25T08:19:29.485Z,16.85
2017-03-25T08:20:34.193Z,15.82
2017-03-25T08:21:39.714Z,15.25
2017-03-25T08:22:44.857Z,14.98
2017-03-25T08:23:50.444Z,15.87
2017-03-25T08:24:56.861Z,17.18
2017-03-25T08:26:01.704Z,15.37
2017-03-25T08:27:07.257Z,14.53
2017-03-25T08:28:12.891Z,16.33
2017-03-25T08:29:17.708Z,16.42
2017-03-25T08:30:22.582Z,14.95
2017-03-25T08:31:28.149Z,16.90
2017-03-25T08:32:34.561Z,15.52
2017-03-25T08:33:39.460Z,17.75
2017-03-25T08:34:45.903Z,15.80
2017-03-25T08:35:51.607Z,15.72
2017-03-25T08:36:56.701Z,17.17
2017-03-25T08:38:02.100Z,18.52
2017-03-25T08:39:07.840Z,16.62
2017-03-25T08:40:14.165Z,16.02
2017-03-25T08:41:18.892Z,20.30
2017-03-25T08:42:24.440Z,17.05
2017-03-25T08:43:30.037Z,16.77
2017-03-25T08:44:35.029Z,15.68
2017-03-25T08:45:39.816Z,17.03
2017-03-25T08:46:45.316Z,18.00
2017-03-25T08:47:50.924Z,17.22
2017-03-25T08:48:55.576Z,18.58
2017-03-25T08:50:01.876Z,17.83
2017-03-25T08:51:07.541Z,17.40
2017-03-25T08:52:13.154Z,16.85
2017-03-25T08:53:18.858Z,17.28
2017-03-25T08:54:23.629Z,19.50
2017-03-25T08:55:30.045Z,16.07
2017-03-25T08:56:34.889Z,17.75
2017-03-25T08:57:40.452Z,17.08
2017-03-25T08:58:46.149Z,19.15
2017-03-25T08:59:51.709Z,18.32
2017-03-25T09:00:56.492Z,18.95
2017-03-25T09:02:02.977Z,18.53
2017-03-25T09:03:07.790Z,17.53
2017-03-25T09:04:12.621Z,17.25
2017-03-25T09:05:19.057Z,15.72
2017-03-25T09:06:23.861Z,17.90
2017-03-25T09:07:30.184Z,17.50
2017-03-25T09:08:35.041Z,18.17
2017-03-25T09:09:40.696Z,19.45
2017-03-25T09:10:45.501Z,19.07
2017-03-25T09:11:51.980Z,17.38
2017-03-25T09:12:57.584Z,18.28
2017-03-25T09:14:02.574Z,18.70
2017-03-25T09:15:08.296Z,19.80
2017-03-25T09:16:14.633Z,19.03
2017-03-25T09:17:19.573Z,18.97
2017-03-25T09:18:25.166Z,20.98
2017-03-25T09:19:29.820Z,18.15
2017-03-25T09:20:35.386Z,18.52
2017-03-25T09:21:40.221Z,19.23
2017-03-25T09:22:46.597Z,20.02
2017-03-25T09:23:52.174Z,19.23
2017-03-25T09:24:57.677Z,19.58
2017-03-25T09:26:03.349Z,18.53
2017-03-25T09:27:09.000Z,19.38
2017-03-25T09:28:13.878Z,18.60
2017-03-25T09:29:19.302Z,19.17
2017-03-25T09:30:25.520Z,19.25
2017-03-25T09:31:31.576Z,18.92
2017-03-25T09:32:36.439Z,18.43
2017-03-25T09:33:41.310Z,17.38
2017-03-25T09:34:46.900Z,17.60
2017-03-25T09:35:52.292Z,17.85
2017-03-25T09:36:57.861Z,18.52
2017-03-25T09:38:03.657Z,20.47
2017-03-25T09:39:08.517Z,18.00
2017-03-25T09:40:14.700Z,19.28
2017-03-25T09:41:19.589Z,18.78
2017-03-25T09:42:33.835Z,19.35
2017-03-25T09:43:39.242Z,19.08
2017-03-25T09:44:44.857Z,17.17
2017-03-25T09:45:49.624Z,19.35
2017-03-25T09:46:55.960Z,20.42
2017-03-25T09:48:01.678Z,18.48
2017-03-25T09:49:07.298Z,18.90
2017-03-25T09:50:12.250Z,16.32
2017-03-25T09:51:18.041Z,17.00
2017-03-25T09:52:24.448Z,17.55
2017-03-25T09:53:29.953Z,18.48
2017-03-25T09:54:35.557Z,16.98
2017-03-25T09:55:40.433Z,17.03
2017-03-25T09:56:46.792Z,18.68
2017-03-25T09:57:51.716Z,18.55
2017-03-25T09:58:57.309Z,18.05
2017-03-25T10:00:03.697Z,18.10
2017-03-25T10:01:09.437Z,19.07
2017-03-25T10:02:15.145Z,17.92
2017-03-25T10:03:20.813Z,18.97
2017-03-25T10:04:27.110Z,16.95
2017-03-25T10:05:32.896Z,19.78
2017-03-25T10:06:38.544Z,16.88
2017-03-25T10:07:44.081Z,16.70
2017-03-25T10:08:49.017Z,15.90
2017-03-25T10:09:55.544Z,16.47
2017-03-25T10:11:01.281Z,18.00
2017-03-25T10:12:06.972Z,19.42
2017-03-25T10:13:11.774Z,17.77
2017-03-25T10:14:18.104Z,16.82
2017-03-25T10:15:23.868Z,15.68
2017-03-25T10:16:29.491Z,16.27
2017-03-25T10:17:35.253Z,16.08
2017-03-25T10:18:40.726Z,19.53
2017-03-25T10:19:46.273Z,16.83
2017-03-25T10:20:51.125Z,13.17
2017-03-25T10:21:56.731Z,13.60
2017-03-25T10:23:02.455Z,12.57
2017-03-25T10:24:07.193Z,13.87
2017-03-25T10:25:13.564Z,15.78
2017-03-25T10:26:19.168Z,13.27
2017-03-25T10:27:24.865Z,13.45
2017-03-25T10:28:30.645Z,12.10
2017-03-25T10:29:36.169Z,12.43
2017-03-25T10:30:41.877Z,12.03
2017-03-25T10:31:46.855Z,11.82
2017-03-25T10:32:53.197Z,11.57
2017-03-25T10:33:59.025Z,12.27
2017-03-25T10:35:03.878Z,11.25
2017-03-25T10:36:09.387Z,11.73
2017-03-25T10:37:15.731Z,12.42
2017-03-25T10:38:20.443Z,10.63
2017-03-25T10:39:25.971Z,10.53
2017-03-25T10:40:31.684Z,10.85
2017-03-25T10:41:37.532Z,9.88
2017-03-25T10:42:42.337Z,11.58
2017-03-25T10:43:48.580Z,8.90
2017-03-25T10:44:54.294Z,8.25
2017-03-25T10:45:59.937Z,8.92
2017-03-25T10:47:04.723Z,9.52
2017-03-25T10:48:11.181Z,8.97
2017-03-25T10:49:16.919Z,9.00
2017-03-25T10:50:21.789Z,9.27
2017-03-25T10:51:28.185Z,9.95
2017-03-25T10:52:33.752Z,10.00
2017-03-25T10:53:39.309Z,12.18
2017-03-25T10:54:44.946Z,12.32
2017-03-25T10:55:50.670Z,9.25
2017-03-25T10:56:56.293Z,10.58
2017-03-25T10:58:01.965Z,9.47
2017-03-25T10:59:07.405Z,9.03
2017-03-25T11:00:12.285Z,10.77
2017-03-25T11:01:17.860Z,10.38
2017-03-25T11:02:23.351Z,10.60
2017-03-25T11:03:28.841Z,9.73
2017-03-25T11:04:34.342Z,10.60
2017-03-25T11:05:39.812Z,11.03
2017-03-25T11:06:46.181Z,9.13
2017-03-25T11:07:51.121Z,10.15
2017-03-25T11:08:57.446Z,9.07
2017-03-25T11:10:02.840Z,10.55
2017-03-25T11:11:08.593Z,10.45
2017-03-25T11:12:13.510Z,9.33
2017-03-25T11:13:19.081Z,10.78
2017-03-25T11:14:24.476Z,13.23
2017-03-25T11:15:30.253Z,9.60
2017-03-25T11:16:35.905Z,9.35
2017-03-25T11:17:41.420Z,12.12
2017-03-25T11:18:46.285Z,9.33
2017-03-25T11:19:51.689Z,9.25
2017-03-25T11:20:57.328Z,9.08
2017-03-25T11:22:02.934Z,8.48
2017-03-25T11:23:08.678Z,8.38
2017-03-25T11:24:13.449Z,9.47
2017-03-25T11:25:18.186Z,8.55
2017-03-25T11:26:23.740Z,7.90
2017-03-25T11:27:30.192Z,8.97
2017-03-25T11:28:36.618Z,9.02
2017-03-25T11:29:42.213Z,8.70
2017-03-25T11:30:47.861Z,8.80
2017-03-25T11:31:52.545Z,9.27
2017-03-25T11:32:57.965Z,19.02
2017-03-25T11:34:03.733Z,8.83
2017-03-25T11:35:09.249Z,11.25
2017-03-25T11:36:13.989Z,8.25
2017-03-25T11:37:19.573Z,7.13
2017-03-25T11:38:24.937Z,6.37
2017-03-25T11:39:29.709Z,8.02
2017-03-25T11:40:35.192Z,8.03
2017-03-25T11:41:40.833Z,6.55
2017-03-25T11:42:46.480Z,6.33
2017-03-25T11:43:52.037Z,6.93
2017-03-25T11:44:56.880Z,8.13
2017-03-25T11:46:03.201Z,7.30
2017-03-25T11:47:08.937Z,8.02
2017-03-25T11:48:14.694Z,8.20
2017-03-25T11:49:19.532Z,9.82
2017-03-25T11:50:25.331Z,7.12
2017-03-25T11:51:30.764Z,6.85
2017-03-25T11:52:35.505Z,7.33
2017-03-25T11:53:41.074Z,7.02
2017-03-25T11:54:47.493Z,10.00
2017-03-25T11:55:53.080Z,9.38
2017-03-25T11:56:58.581Z,7.80
2017-03-25T11:58:03.465Z,8.22
2017-03-25T11:59:09.030Z,7.15
2017-03-25T12:00:13.768Z,4.98
2017-03-25T12:01:19.381Z,5.68
2017-03-25T12:02:25.005Z,8.47
2017-03-25T12:03:29.820Z,5.35
2017-03-25T12:04:35.308Z,6.20
2017-03-25T12:05:41.517Z,5.00
2017-03-25T12:06:47.181Z,5.00
2017-03-25T12:07:52.841Z,4.95
2017-03-25T12:08:57.769Z,4.30
2017-03-25T12:10:04.073Z,4.95
2017-03-25T12:11:09.652Z,5.42
2017-03-25T12:12:14.596Z,8.07
2017-03-25T12:13:20.885Z,9.33
2017-03-25T12:14:25.715Z,3.73
2017-03-25T12:15:32.012Z,5.58
2017-03-25T12:16:36.880Z,5.08
2017-03-25T12:17:41.733Z,5.97
2017-03-25T12:18:47.233Z,5.00
2017-03-25T12:19:56.655Z,5.27
2017-03-25T12:21:01.485Z,4.82
2017-03-25T12:22:07.069Z,4.53
2017-03-25T12:23:12.598Z,5.25
2017-03-25T12:24:18.690Z,6.47
2017-03-25T12:25:23.689Z,5.72
2017-03-25T12:26:29.344Z,7.58
2017-03-25T12:27:34.940Z,5.50
2017-03-25T12:28:40.570Z,5.62
2017-03-25T12:29:46.732Z,7.92
2017-03-25T12:30:51.484Z,5.67
2017-03-25T12:31:57.855Z,4.88
2017-03-25T12:33:03.449Z,6.13
2017-03-25T12:34:09.206Z,7.73
2017-03-25T12:35:13.970Z,6.92
2017-03-25T12:36:19.584Z,6.27
2017-03-25T12:37:26.025Z,5.20
2017-03-25T12:38:32.353Z,5.25
2017-03-25T12:39:38.098Z,6.07
2017-03-25T12:40:42.912Z,6.07
2017-03-25T12:41:49.152Z,5.70
2017-03-25T12:42:54.878Z,5.13
2017-03-25T12:44:00.389Z,5.87
2017-03-25T12:45:06.089Z,5.58
2017-03-25T12:46:10.829Z,6.20
2017-03-25T12:47:17.111Z,4.92
2017-03-25T12:48:21.978Z,5.37
2017-03-25T12:49:27.612Z,6.35
2017-03-25T12:50:32.981Z,5.60
2017-03-25T12:51:38.716Z,6.50
2017-03-25T12:52:45.021Z,5.82
2017-03-25T12:53:49.914Z,6.07
2017-03-25T12:54:56.167Z,6.90
2017-03-25T12:56:01.015Z,21.92
2017-03-25T12:57:06.514Z,6.57
2017-03-25T12:58:12.026Z,7.63
2017-03-25T12:59:17.467Z,7.20
2017-03-25T13:00:23.800Z,23.03
2017-03-25T13:01:28.789Z,10.75
2017-03-25T13:02:34.138Z,8.40
2017-03-25T13:03:39.713Z,7.05
2017-03-25T13:04:45.413Z,7.47
2017-03-25T13:05:51.005Z,7.20
2017-03-25T13:06:56.604Z,7.02
2017-03-25T13:08:02.929Z,8.32
2017-03-25T13:09:07.813Z,6.17
2017-03-25T13:10:14.111Z,7.37
2017-03-25T13:11:18.817Z,6.12
2017-03-25T13:12:25.141Z,5.95
2017-03-25T13:13:30.809Z,7.47
2017-03-25T13:14:36.447Z,6.18
2017-03-25T13:15:41.293Z,6.95
2017-03-25T13:16:46.874Z,7.45
2017-03-25T13:17:53.385Z,8.63
2017-03-25T13:18:58.875Z,6.77
2017-03-25T13:20:04.342Z,7.32
2017-03-25T13:21:09.205Z,6.62
2017-03-25T13:22:15.445Z,6.70
2017-03-25T13:23:20.377Z,8.18
2017-03-25T13:24:25.853Z,8.95
2017-03-25T13:25:31.408Z,5.82
2017-03-25T13:26:36.992Z,6.22
2017-03-25T13:27:42.574Z,6.47
2017-03-25T13:28:48.138Z,6.97
2017-03-25T13:29:54.414Z,6.03
2017-03-25T13:31:00.149Z,6.87
2017-03-25T13:32:05.009Z,6.40
2017-03-25T13:33:10.601Z,6.22
2017-03-25T13:34:16.310Z,6.25
2017-03-25T13:35:21.781Z,6.47
2017-03-25T13:36:27.433Z,6.38
2017-03-25T13:37:33.020Z,7.67
2017-03-25T13:38:39.381Z,5.92
2017-03-25T13:39:44.278Z,6.93
2017-03-25T13:40:49.833Z,6.85
2017-03-25T13:41:56.337Z,6.13
2017-03-25T13:43:01.913Z,6.13
2017-03-25T13:44:07.760Z,6.92
2017-03-25T13:45:13.308Z,6.12
2017-03-25T13:46:19.563Z,6.87
2017-03-25T13:47:25.281Z,9.82
2017-03-25T13:48:30.018Z,5.85
2017-03-25T13:49:36.265Z,6.93
2017-03-25T13:50:41.152Z,7.28
2017-03-25T13:51:46.836Z,6.07
2017-03-25T13:52:52.346Z,6.55
2017-03-25T13:53:58.771Z,6.82
2017-03-25T13:55:03.572Z,6.48
2017-03-25T13:56:10.013Z,7.05
2017-03-25T13:57:14.872Z,6.77
2017-03-25T13:58:20.469Z,6.65
2017-03-25T13:59:26.026Z,8.42
2017-03-25T14:00:30.701Z,8.35
2017-03-25T14:01:36.306Z,7.03
2017-03-25T14:02:41.945Z,6.10
2017-03-25T14:03:47.558Z,7.33
2017-03-25T14:04:52.976Z,7.00
2017-03-25T14:05:58.565Z,8.07
2017-03-25T14:07:04.228Z,7.33
2017-03-25T14:08:10.658Z,8.18
2017-03-25T14:09:15.314Z,7.18
2017-03-25T14:10:20.762Z,6.90
2017-03-25T14:11:25.721Z,6.87